LYBE/BEG METAR and TAF weather

Enter ICAO airport designator
Station Type Date Time Source
LYBE METAR 2022/12/04 04:30 UTC NOAA

LYBE 040430Z 13017KT CAVOK 05/01 Q1021 NOSIG


Station Type Date Time Source
LYBE Decoded METAR 2022/12/04 04:30 UTC NOAA

Beograd / Surcin, Serbia and Montenegro (LYBE) 44-49N 020-17E 99M
Dec 03, 2022 - 11:30 PM EST / 2022.12.04 0430 UTC
Wind: from the SE (130 degrees) at 20 MPH (17 KT):0
Visibility: greater than 7 mile(s):0
Temperature: 41 F (5 C)
Dew Point: 33 F (1 C)
Relative Humidity: 75%
Pressure (altimeter): 30.15 in. Hg (1021 hPa)
ob: LYBE 040430Z 13017KT CAVOK 05/01 Q1021 NOSIG
cycle: 4

Station Type Date Time Source
LYBE TAF 2022/12/03 18:21 UTC NOAA

TAF LYBE 031700Z 0318/0418 08012KT CAVOK TX10/0413Z TN04/0406Z
BECMG 0321/0323 14018KT
TEMPO 0408/0414 13020G30KT

Example: see airport list